메인 페이지
METAR-TAF:

METAR-TAF

공항 :

야프 국제공항

야프 섬, 미크로네시아

위도: 09-29N, 경도: 138-05E, 고도: 28m

현재 날씨관측

예보는 50분 전, 04:53시(UTC)에 발표되었습니다.
11kt
온도 32°C
습도 71%
기압 1009 hPa
시정: 19.3km
고도 1800ft 상공 구름 조금
고도 30000ft 상공 구름 많음

METAR: PTYA 250453Z 10011KT 12SM FEW018 BKN300 32/26 A2979 RMK SLP090 T03220262

시각: 15:43 (05:43 UTC)

예보

예보는 20분 전, 05:23시(UTC)에 발표되었습니다.
예보 대상 시간: 25일 06시부터 26일 06시까지 (UTC)
10kt
시정: 10km
고도 1800ft 상공 구름 조금
고도 3500ft 상공 구름 보통
시계 내 소나기,

TAF: PTYA 250523Z 2506/2606 10010KT P6SM VCSH FEW018 SCT035

4,000개 이상의 공항 관측 자료 및 예보 (METAR 및 TAF 보고).

지도상에서 검색 가능한 기상관측소가 노란 점과 빨간 점으로 표시되어 있습니다.

기상관측소 명을 보려면 표시 위로 마우스를 이동하세요.

날씨 관측과 예보를 보려면 클릭하세요.

지도 변경 : 확대하려면 엑스 표시가 있는 녹색 버튼, 축소하려면 빼기 표시가 있는 녹색 버튼, 다음 페이지의 지도를 보려면 녹색 화살표를 클릭하세요.


METAR-TAF: